Time;durP1;ratioP1;P1;durP2;ratioP2;P2;SDS_P1;SDS_P2;PMS_P1;PMS_P2;Temp;Humidity;BMP_temperature;BMP_pressure;BME280_temperature;BME280_humidity;BME280_pressure;Samples;Min_cycle;Max_cycle;Signal;HPM_P1;HPM_P2
2022/07/26 00:00:42;;;;;;;1.23;1.17;;;;;;;27.94;39.71;94867.59;5031180;28;20247;-66
2022/07/26 00:03:09;;;;;;;0.50;0.50;;;;;;;27.93;39.97;94866.06;5041046;28;20227;-67
2022/07/26 00:05:37;;;;;;;0.60;0.60;;;;;;;27.82;39.91;94865.13;5024969;28;20189;-67
2022/07/26 00:08:11;;;;;;;1.60;1.37;;;;;;;27.67;40.15;94857.97;5010552;28;20260;-66
2022/07/26 00:10:40;;;;;;;1.73;1.57;;;;;;;27.72;40.23;94863.03;5033629;28;20218;-67
2022/07/26 00:13:07;;;;;;;2.00;1.60;;;;;;;27.74;40.34;94860.75;5048870;28;20203;-65
2022/07/26 00:15:35;;;;;;;5.37;1.97;;;;;;;27.59;40.51;94870.56;5030686;28;20194;-67
2022/07/26 00:18:03;;;;;;;1.57;1.47;;;;;;;27.75;40.26;94870.41;5029002;28;20672;-66
2022/07/26 00:20:33;;;;;;;3.53;1.33;;;;;;;27.85;40.19;94867.06;5031129;28;20205;-66
2022/07/26 00:23:01;;;;;;;1.13;1.10;;;;;;;27.75;40.27;94865.03;5025821;28;20247;-67
2022/07/26 00:25:28;;;;;;;1.27;1.17;;;;;;;27.61;40.36;94859.47;5042524;28;20679;-68
2022/07/26 00:27:55;;;;;;;3.00;1.27;;;;;;;27.55;40.87;94871.66;5029804;28;20244;-67
2022/07/26 00:30:23;;;;;;;1.37;1.27;;;;;;;27.57;40.21;94859.38;5029932;28;20204;-67
2022/07/26 00:32:51;;;;;;;1.70;1.60;;;;;;;27.44;40.79;94859.97;5042098;28;20254;-67
2022/07/26 00:35:19;;;;;;;1.17;1.07;;;;;;;27.39;40.64;94857.59;5013665;28;20194;-67
2022/07/26 00:37:46;;;;;;;1.80;1.67;;;;;;;27.12;41.42;94858.66;5021325;28;20753;-67
2022/07/26 00:40:14;;;;;;;0.77;0.77;;;;;;;26.98;41.51;94851.94;5014959;28;20193;-67
2022/07/26 00:42:42;;;;;;;4.40;1.67;;;;;;;27.03;41.30;94838.19;5039281;28;20232;-66
2022/07/26 00:45:10;;;;;;;0.80;0.80;;;;;;;27.07;41.22;94850.91;5032723;28;20738;-66
2022/07/26 00:47:37;;;;;;;0.70;0.70;;;;;;;26.99;41.41;94856.16;5017746;28;20184;-65
2022/07/26 00:50:06;;;;;;;1.23;1.07;;;;;;;27.03;41.57;94857.00;5043462;28;20679;-66
2022/07/26 00:52:34;;;;;;;0.73;0.73;;;;;;;26.92;41.81;94850.69;5022882;28;20193;-66
2022/07/26 00:55:01;;;;;;;1.73;1.27;;;;;;;27.20;41.31;94854.94;5035682;28;20200;-67
2022/07/26 00:57:28;;;;;;;1.20;0.87;;;;;;;27.20;41.10;94854.94;5024980;28;20665;-66
2022/07/26 00:59:59;;;;;;;1.53;1.43;;;;;;;27.23;41.29;94857.69;5049510;28;20254;-66
2022/07/26 01:02:26;;;;;;;1.00;1.00;;;;;;;27.27;41.07;94858.53;5049499;28;20189;-66
2022/07/26 01:04:53;;;;;;;1.27;0.60;;;;;;;26.87;42.04;94863.66;5024761;28;20205;-67
2022/07/26 01:07:21;;;;;;;1.57;1.47;;;;;;;26.81;41.79;94852.41;5025204;28;20213;-67
2022/07/26 01:09:48;;;;;;;1.67;1.57;;;;;;;26.72;42.28;94851.88;5015388;28;20197;-67
2022/07/26 01:12:15;;;;;;;2.00;1.67;;;;;;;26.67;42.48;94854.84;5040366;28;20261;-67
2022/07/26 01:14:43;;;;;;;1.43;1.33;;;;;;;26.89;42.13;94856.00;5035134;28;20203;-67
2022/07/26 01:17:11;;;;;;;2.07;1.43;;;;;;;26.92;42.28;94856.06;5040815;28;20813;-69
2022/07/26 01:19:38;;;;;;;3.83;1.53;;;;;;;27.00;41.97;94862.34;5029192;28;20664;-67
2022/07/26 01:22:04;;;;;;;0.97;0.97;;;;;;;26.87;42.19;94859.06;5037349;28;20250;-68
2022/07/26 01:24:38;;;;;;;1.27;1.10;;;;;;;26.91;41.93;94853.72;5034617;28;20205;-66
2022/07/26 01:27:05;;;;;;;1.13;1.03;;;;;;;26.86;42.14;94852.09;5036382;28;20739;-66
2022/07/26 01:29:32;;;;;;;0.87;0.87;;;;;;;26.75;42.40;94851.16;5036336;28;20201;-66
2022/07/26 01:32:03;;;;;;;1.50;1.40;;;;;;;26.49;42.92;94855.66;5029211;28;20281;-66
2022/07/26 01:34:31;;;;;;;3.70;2.37;;;;;;;26.38;42.97;94850.09;5019103;28;20224;-67
2022/07/26 01:36:57;;;;;;;2.80;1.37;;;;;;;26.55;42.76;94830.78;5021983;28;20234;-68
2022/07/26 01:39:24;;;;;;;2.63;2.43;;;;;;;26.88;42.08;94847.16;5043112;28;20290;-67
2022/07/26 01:41:52;;;;;;;2.00;1.80;;;;;;;26.78;42.15;94828.16;5061297;28;20227;-66
2022/07/26 01:44:18;;;;;;;1.10;0.93;;;;;;;26.96;41.93;94851.50;5049341;28;20205;-66
2022/07/26 01:46:45;;;;;;;1.10;1.00;;;;;;;27.13;41.54;94838.72;5027553;28;20209;-66
2022/07/26 01:49:12;;;;;;;2.00;1.80;;;;;;;27.22;41.67;94847.31;5052902;28;20188;-67
2022/07/26 01:51:39;;;;;;;0.83;0.83;;;;;;;27.22;41.59;94847.31;5052726;28;20203;-67
2022/07/26 01:54:06;;;;;;;0.53;0.53;;;;;;;27.21;41.57;94857.28;5037711;28;20200;-66
2022/07/26 01:56:33;;;;;;;0.93;0.93;;;;;;;27.04;41.99;94858.53;5038948;28;20198;-66
2022/07/26 01:59:00;;;;;;;2.30;1.43;;;;;;;26.94;42.10;94851.09;5038764;28;20220;-67
2022/07/26 02:01:27;;;;;;;0.70;0.70;;;;;;;27.02;42.07;94849.31;5066684;28;20250;-65
2022/07/26 02:04:07;;;;;;;0.87;0.87;;;;;;;27.20;42.17;94854.94;5065740;28;20192;-66
2022/07/26 02:06:35;;;;;;;1.53;1.23;;;;;;;26.92;42.29;94853.38;5061257;28;20204;-67
2022/07/26 02:09:03;;;;;;;1.13;1.03;;;;;;;26.79;42.79;94867.34;5015425;28;20208;-65
2022/07/26 02:11:33;;;;;;;1.53;1.20;;;;;;;26.86;42.59;94862.84;5032305;28;20555;-66
2022/07/26 02:14:01;;;;;;;1.13;1.13;;;;;;;26.84;42.68;94859.75;5022247;28;20275;-66
2022/07/26 02:16:28;;;;;;;0.60;0.60;;;;;;;26.90;42.45;94869.06;5048009;28;20196;-67
2022/07/26 02:18:55;;;;;;;1.13;1.03;;;;;;;26.81;42.67;94859.69;5043612;28;20320;-66
2022/07/26 02:21:22;;;;;;;0.53;0.53;;;;;;;26.89;42.51;94864.06;5031415;28;20619;-66
2022/07/26 02:23:49;;;;;;;1.03;1.03;;;;;;;26.72;43.08;94868.00;5013043;28;20198;-67
2022/07/26 02:26:16;;;;;;;2.90;1.27;;;;;;;26.47;43.59;94872.13;5013122;28;20699;-68
2022/07/26 02:28:42;;;;;;;1.13;1.03;;;;;;;26.52;43.58;94866.44;5013228;28;20198;-66
2022/07/26 02:31:09;;;;;;;0.87;0.87;;;;;;;26.55;43.48;94863.03;5035921;28;20691;-65
2022/07/26 02:33:37;;;;;;;1.50;1.30;;;;;;;26.49;43.56;94866.41;5020025;28;20197;-67
2022/07/26 02:36:04;;;;;;;0.97;0.97;;;;;;;26.68;43.09;94866.34;5043537;28;20231;-67
2022/07/26 02:38:31;;;;;;;0.93;0.93;;;;;;;26.75;42.81;94871.91;5038404;28;20635;-67
2022/07/26 02:40:57;;;;;;;2.30;0.63;;;;;;;26.64;43.04;94860.16;5052532;28;20204;-67
2022/07/26 02:43:25;;;;;;;1.60;1.40;;;;;;;26.37;43.77;94872.69;5038217;28;20217;-67
2022/07/26 02:45:52;;;;;;;1.17;1.00;;;;;;;26.31;44.00;94874.13;5051384;28;20188;-66
2022/07/26 02:48:29;;;;;;;2.37;1.40;;;;;;;25.85;44.81;94867.81;5051412;28;20200;-68
2022/07/26 02:50:56;;;;;;;0.60;0.60;;;;;;;26.23;43.97;94869.75;5032336;28;20672;-67
2022/07/26 02:53:23;;;;;;;1.07;0.97;;;;;;;26.13;44.42;94872.97;5045515;28;20555;-67
2022/07/26 02:55:50;;;;;;;1.93;1.83;;;;;;;26.25;44.17;94874.75;5035919;28;20194;-66
2022/07/26 02:58:20;;;;;;;1.87;1.57;;;;;;;26.57;43.46;94871.53;5026355;28;20579;-68
2022/07/26 03:00:47;;;;;;;1.80;1.70;;;;;;;26.49;43.52;94874.44;5032129;28;20584;-66
2022/07/26 03:03:13;;;;;;;0.90;0.90;;;;;;;26.37;43.81;94878.06;5018964;28;20218;-67
2022/07/26 03:05:41;;;;;;;1.13;1.10;;;;;;;26.18;44.16;94859.28;5011704;28;20738;-67
2022/07/26 03:08:08;;;;;;;1.50;1.17;;;;;;;26.35;43.85;94885.69;5012051;28;20208;-67
2022/07/26 03:10:35;;;;;;;1.80;0.90;;;;;;;26.21;44.23;94873.91;5032758;28;20200;-66
2022/07/26 03:13:02;;;;;;;1.07;1.07;;;;;;;26.15;44.54;94878.03;5028297;28;20675;-65
2022/07/26 03:15:29;;;;;;;1.10;1.03;;;;;;;26.43;44.27;94876.66;5042121;28;20968;-66
2022/07/26 03:17:56;;;;;;;1.90;1.80;;;;;;;26.29;44.19;94865.66;5031614;28;20220;-67
2022/07/26 03:20:23;;;;;;;1.77;1.13;;;;;;;26.49;44.08;94885.22;5049261;28;20279;-66
2022/07/26 03:22:50;;;;;;;1.27;1.17;;;;;;;26.54;43.96;94892.97;5039809;28;20216;-66
2022/07/26 03:25:17;;;;;;;2.17;1.97;;;;;;;26.43;44.14;94890.09;5037120;28;20197;-67
2022/07/26 03:27:44;;;;;;;1.90;1.67;;;;;;;25.88;45.70;94893.94;5030185;28;20953;-67
2022/07/26 03:30:11;;;;;;;0.63;0.63;;;;;;;26.09;45.09;94888.28;5044101;28;20204;-65
2022/07/26 03:32:38;;;;;;;1.40;1.30;;;;;;;25.99;45.09;94888.78;5042044;28;20198;-65
2022/07/26 03:35:06;;;;;;;1.60;1.50;;;;;;;26.38;44.51;94897.66;5033910;28;20262;-66
2022/07/26 03:37:33;;;;;;;1.43;1.33;;;;;;;26.42;44.37;94899.25;5037267;28;20250;-66
2022/07/26 03:40:16;;;;;;;3.37;1.70;;;;;;;26.47;44.50;94899.00;5051113;28;20577;-67
2022/07/26 03:42:44;;;;;;;1.13;1.07;;;;;;;26.42;44.43;94896.56;5046756;28;20263;-66
2022/07/26 03:45:13;;;;;;;6.90;3.23;;;;;;;26.38;44.20;94885.00;5020996;28;20194;-67
2022/07/26 03:47:40;;;;;;;1.70;1.60;;;;;;;26.34;44.57;94894.91;5030325;28;20209;-67
2022/07/26 03:50:09;;;;;;;1.73;1.33;;;;;;;26.49;44.07;94894.06;5039410;28;20213;-66
2022/07/26 03:52:37;;;;;;;0.83;0.80;;;;;;;26.38;44.56;94884.22;5031474;28;20277;-66
2022/07/26 03:56:27;;;;;;;1.60;1.50;;;;;;;26.25;44.60;94897.03;5025428;28;20248;-67
2022/07/26 03:57:52;;;;;;;2.07;1.73;;;;;;;26.42;44.30;94885.84;5032266;28;20197;-66
2022/07/26 04:00:19;;;;;;;0.87;0.87;;;;;;;26.31;44.25;94881.41;5019788;28;20247;-66
2022/07/26 04:02:46;;;;;;;2.63;1.60;;;;;;;26.41;44.68;94888.88;5014807;28;20227;-65
2022/07/26 04:05:12;;;;;;;2.27;1.60;;;;;;;26.42;44.73;94885.06;5031048;28;20568;-66
2022/07/26 04:07:44;;;;;;;1.67;1.53;;;;;;;26.31;44.79;94882.19;5030703;28;20216;-66
2022/07/26 04:10:20;;;;;;;1.47;1.37;;;;;;;26.30;44.93;94888.69;5029658;28;20612;-66
2022/07/26 04:12:48;;;;;;;1.63;1.40;;;;;;;26.44;44.46;94894.31;5023388;28;20201;-66
2022/07/26 04:15:17;;;;;;;2.13;1.93;;;;;;;26.26;44.88;94882.44;5050548;28;20196;-67
2022/07/26 04:17:46;;;;;;;1.40;1.30;;;;;;;26.34;44.69;94878.78;5037140;28;20589;-67
2022/07/26 04:20:14;;;;;;;1.90;1.80;;;;;;;26.38;44.68;94885.00;5017143;28;20201;-66
2022/07/26 04:22:41;;;;;;;1.00;1.00;;;;;;;26.42;44.41;94882.38;5030626;28;20216;-67
2022/07/26 04:25:08;;;;;;;1.47;1.37;;;;;;;26.23;44.81;94883.16;5025008;28;20209;-65
2022/07/26 04:27:36;;;;;;;1.17;1.13;;;;;;;26.45;44.54;94877.06;5012470;28;20339;-66
2022/07/26 04:30:05;;;;;;;1.27;1.17;;;;;;;26.44;44.86;94872.81;5030769;28;20200;-66
2022/07/26 04:32:40;;;;;;;1.83;1.40;;;;;;;26.62;44.28;94881.97;5048138;28;20214;-66
2022/07/26 04:35:08;;;;;;;1.87;1.73;;;;;;;26.61;44.03;94876.97;5039417;28;20780;-67
2022/07/26 04:37:42;;;;;;;1.20;1.20;;;;;;;26.64;44.42;94871.66;5029918;28;20208;-68
2022/07/26 04:40:14;;;;;;;2.17;1.40;;;;;;;26.62;44.30;94867.78;5030432;28;20224;-67
2022/07/26 04:42:41;;;;;;;1.27;0.70;;;;;;;26.50;44.76;94868.72;5029700;28;20197;-66
2022/07/26 04:45:09;;;;;;;0.90;0.90;;;;;;;26.66;44.51;94864.00;5029926;28;20205;-71
2022/07/26 04:47:36;;;;;;;1.13;0.83;;;;;;;26.75;43.85;94867.28;5016079;28;20244;-72
2022/07/26 04:50:04;;;;;;;1.63;1.53;;;;;;;26.59;44.76;94869.28;5028756;28;20197;-67
2022/07/26 04:52:30;;;;;;;0.90;0.87;;;;;;;26.57;44.74;94871.53;5016925;28;20275;-68
2022/07/26 04:54:59;;;;;;;1.97;1.77;;;;;;;26.54;44.75;94866.88;5028280;28;20225;-67
2022/07/26 04:57:26;;;;;;;1.40;1.27;;;;;;;26.57;44.81;94871.53;5009693;28;20205;-69
2022/07/26 04:59:53;;;;;;;8.10;5.30;;;;;;;26.81;44.75;94873.13;5023353;28;20295;-70
2022/07/26 05:02:41;;;;;;;1.07;1.07;;;;;;;26.58;44.99;94875.00;5019827;28;20185;-71
2022/07/26 05:05:08;;;;;;;2.23;1.53;;;;;;;26.59;44.71;94869.28;5015981;28;20897;-68
2022/07/26 05:07:42;;;;;;;1.40;0.90;;;;;;;26.72;45.07;94869.91;5035986;28;20200;-68
2022/07/26 05:10:10;;;;;;;5.43;4.07;;;;;;;26.79;45.28;94872.72;5012593;28;20209;-70
2022/07/26 05:12:37;;;;;;;2.43;2.30;;;;;;;26.78;44.77;94874.66;5028162;28;20208;-67
2022/07/26 05:15:05;;;;;;;0.97;0.97;;;;;;;26.28;46.83;94872.13;5018311;28;20254;-67
2022/07/26 05:17:40;;;;;;;6.53;2.60;;;;;;;26.31;46.65;94844.56;5033927;28;20207;-66
2022/07/26 05:20:08;;;;;;;2.17;1.77;;;;;;;26.80;45.01;94856.25;5019898;28;20624;-69
2022/07/26 05:22:36;;;;;;;0.50;0.50;;;;;;;27.08;43.94;94852.47;5034148;28;20223;-69
2022/07/26 05:25:04;;;;;;;3.80;3.03;;;;;;;26.84;44.80;94859.00;5033295;28;20192;-69
2022/07/26 05:27:31;;;;;;;1.27;1.17;;;;;;;26.61;45.70;94855.47;5043825;28;20648;-69
2022/07/26 05:29:58;;;;;;;2.10;2.00;;;;;;;27.03;44.19;94858.91;5035119;28;20267;-71
2022/07/26 05:32:26;;;;;;;6.57;4.70;;;;;;;27.26;43.90;94858.91;5033344;28;20664;-69
2022/07/26 05:34:53;;;;;;;7.07;4.03;;;;;;;27.49;43.29;94852.34;5047192;28;20203;-67
2022/07/26 05:37:20;;;;;;;2.07;1.73;;;;;;;27.59;43.16;94853.66;5033464;28;20194;-67
2022/07/26 05:39:47;;;;;;;1.27;1.27;;;;;;;27.65;42.68;94860.25;5018565;28;20295;-68
2022/07/26 05:42:14;;;;;;;3.10;1.20;;;;;;;27.54;42.91;94838.59;5024184;28;20201;-66
2022/07/26 05:44:40;;;;;;;3.80;1.63;;;;;;;27.34;43.61;94860.56;5041449;28;20205;-68
2022/07/26 05:47:08;;;;;;;3.43;1.60;;;;;;;27.19;44.94;94859.53;5022971;28;20203;-68
2022/07/26 05:49:35;;;;;;;1.10;1.00;;;;;;;27.19;44.35;94850.72;5043720;28;20234;-67
2022/07/26 05:52:07;;;;;;;1.60;1.50;;;;;;;27.73;43.60;94851.16;5048238;28;20204;-67
2022/07/26 05:54:34;;;;;;;3.40;1.70;;;;;;;27.91;42.31;94847.56;5043750;28;20189;-67
2022/07/26 05:57:02;;;;;;;1.23;1.13;;;;;;;27.55;43.77;94845.53;5015348;28;20669;-69
2022/07/26 05:59:28;;;;;;;1.37;1.27;;;;;;;27.86;42.92;94849.78;5023009;28;20208;-68
2022/07/26 06:01:55;;;;;;;2.10;1.93;;;;;;;27.87;42.54;94837.88;5047019;28;20275;-67
2022/07/26 06:04:24;;;;;;;0.90;0.90;;;;;;;27.78;43.02;94837.38;5033258;28;20809;-68
2022/07/26 06:06:53;;;;;;;0.57;0.57;;;;;;;27.84;42.97;94842.06;5032873;28;20208;-68
2022/07/26 06:09:24;;;;;;;1.63;1.53;;;;;;;27.50;44.00;94828.91;5019186;28;20276;-68
2022/07/26 06:11:51;;;;;;;1.40;1.37;;;;;;;28.03;42.56;94835.78;5040300;28;20193;-68
2022/07/26 06:14:19;;;;;;;1.07;1.00;;;;;;;27.84;42.65;94836.69;5025811;28;20258;-67
2022/07/26 06:16:46;;;;;;;5.10;1.73;;;;;;;28.29;41.84;94827.63;5038284;28;20884;-69
2022/07/26 06:19:13;;;;;;;0.67;0.67;;;;;;;27.72;43.44;94822.66;5040728;28;20279;-67
2022/07/26 06:21:41;;;;;;;2.03;1.07;;;;;;;28.21;42.31;94823.28;5050766;28;20188;-67
2022/07/26 06:24:08;;;;;;;1.40;1.30;;;;;;;28.23;42.08;94821.00;5052280;28;20192;-67
2022/07/26 06:26:36;;;;;;;1.00;1.00;;;;;;;28.08;42.59;94816.63;5046765;28;20360;-67
2022/07/26 06:29:02;;;;;;;1.20;1.07;;;;;;;27.84;43.12;94820.53;5030480;28;20188;-68
2022/07/26 06:31:29;;;;;;;2.83;1.37;;;;;;;28.29;42.18;94824.13;5023919;28;20591;-68
2022/07/26 06:33:56;;;;;;;0.73;0.73;;;;;;;28.54;41.64;94820.59;5025442;28;20202;-67
2022/07/26 06:36:23;;;;;;;2.50;1.20;;;;;;;28.57;41.86;94817.16;5025569;28;20197;-68
2022/07/26 06:38:56;;;;;;;2.10;1.27;;;;;;;28.72;41.11;94815.38;5026509;28;20213;-67
2022/07/26 06:41:23;;;;;;;0.77;0.77;;;;;;;28.91;40.72;94818.63;5023705;28;20197;-67
2022/07/26 06:43:49;;;;;;;1.57;1.47;;;;;;;28.74;41.00;94813.84;5020970;28;20189;-68
2022/07/26 06:46:18;;;;;;;2.07;1.03;;;;;;;28.85;40.97;94813.94;5050378;28;20196;-67
2022/07/26 06:48:45;;;;;;;1.40;1.30;;;;;;;28.94;41.04;94823.25;5050692;28;20257;-68
2022/07/26 06:51:18;;;;;;;1.40;1.30;;;;;;;28.95;41.49;94818.66;5030479;28;20759;-68
2022/07/26 06:53:44;;;;;;;1.00;1.00;;;;;;;28.87;41.62;94812.41;5038384;28;20552;-68
2022/07/26 06:56:13;;;;;;;2.50;1.67;;;;;;;29.08;41.40;94814.53;5012376;28;20205;-67
2022/07/26 06:58:41;;;;;;;0.57;0.57;;;;;;;29.12;40.60;94803.78;5040511;28;20514;-68
2022/07/26 07:01:08;;;;;;;1.40;1.23;;;;;;;28.99;41.14;94809.41;5032032;28;20199;-68
2022/07/26 07:03:35;;;;;;;0.57;0.57;;;;;;;29.33;40.88;94806.63;5038800;28;20251;-69
2022/07/26 07:06:02;;;;;;;1.67;1.30;;;;;;;29.22;40.68;94811.16;5052630;28;20199;-68
2022/07/26 07:08:28;;;;;;;0.80;0.80;;;;;;;29.44;40.65;94813.63;5030396;28;20649;-67
2022/07/26 07:10:56;;;;;;;0.50;0.50;;;;;;;29.28;41.54;94815.06;5040024;28;20208;-69
2022/07/26 07:13:23;;;;;;;1.50;1.33;;;;;;;28.87;42.56;94817.03;5012432;28;20699;-70
2022/07/26 07:15:50;;;;;;;1.80;1.67;;;;;;;29.31;40.97;94808.91;5036953;28;20227;-68
2022/07/26 07:18:19;;;;;;;0.50;0.50;;;;;;;28.88;41.12;94803.19;5037990;28;20577;-67
2022/07/26 07:20:46;;;;;;;0.97;0.97;;;;;;;29.38;40.74;94803.59;5050970;28;20658;-68
2022/07/26 07:23:13;;;;;;;1.40;1.33;;;;;;;29.17;40.76;94803.41;5038074;28;20204;-68
2022/07/26 07:25:39;;;;;;;1.47;1.10;;;;;;;29.49;40.48;94804.41;5042915;28;20204;-68
2022/07/26 07:28:10;;;;;;;0.67;0.67;;;;;;;29.70;39.40;94804.56;5043918;28;20232;-68
2022/07/26 07:30:37;;;;;;;3.57;1.33;;;;;;;29.53;39.68;94813.28;5027850;28;20193;-67
2022/07/26 07:33:03;;;;;;;1.17;1.17;;;;;;;29.88;40.10;94816.22;5051348;28;20220;-68
2022/07/26 07:35:30;;;;;;;1.10;1.10;;;;;;;29.29;39.51;94814.69;5038198;28;20193;-68
2022/07/26 07:37:58;;;;;;;1.20;1.10;;;;;;;29.38;40.04;94809.72;5038294;28;20284;-69
2022/07/26 07:40:28;;;;;;;1.17;1.07;;;;;;;29.55;39.43;94805.59;5013464;28;20737;-70
2022/07/26 07:42:57;;;;;;;0.97;0.97;;;;;;;29.99;39.24;94787.31;5034375;28;20635;-69
2022/07/26 07:45:23;;;;;;;4.63;2.37;;;;;;;30.21;39.53;94813.25;5048081;28;20663;-68
2022/07/26 07:47:50;;;;;;;2.00;1.57;;;;;;;30.52;39.12;94801.78;5041182;28;20192;-67
2022/07/26 07:50:17;;;;;;;2.17;1.47;;;;;;;30.09;39.52;94810.88;5023344;28;20673;-69
2022/07/26 07:52:44;;;;;;;1.00;0.87;;;;;;;30.26;37.03;94812.91;5051306;28;20196;-68
2022/07/26 07:55:11;;;;;;;1.07;1.07;;;;;;;30.65;36.68;94792.16;5035152;28;20205;-68
2022/07/26 07:57:57;;;;;;;1.97;1.83;;;;;;;30.42;37.32;94797.09;5023125;28;20729;-68
2022/07/26 08:00:25;;;;;;;1.83;1.50;;;;;;;30.50;36.83;94793.28;5035036;28;20224;-68
2022/07/26 08:02:58;;;;;;;1.47;1.37;;;;;;;30.32;38.39;94797.09;5040191;28;20667;-67
2022/07/26 08:05:25;;;;;;;6.73;2.43;;;;;;;30.50;37.32;94798.69;5044746;28;20185;-67
2022/07/26 08:07:52;;;;;;;2.93;2.13;;;;;;;30.36;37.97;94793.25;5022069;28;20212;-67
2022/07/26 08:10:20;;;;;;;4.00;1.83;;;;;;;30.64;36.86;94785.16;5028635;28;20342;-68
2022/07/26 08:12:46;;;;;;;1.30;1.20;;;;;;;30.84;38.25;94791.78;5049076;28;20189;-68
2022/07/26 08:15:17;;;;;;;2.77;2.50;;;;;;;31.06;36.94;94787.13;5011418;28;20198;-68
2022/07/26 08:17:45;;;;;;;2.17;1.97;;;;;;;31.25;35.47;94780.53;5038734;28;20203;-66
2022/07/26 08:20:19;;;;;;;1.53;1.43;;;;;;;31.30;34.61;94780.16;5011440;28;20216;-68
2022/07/26 08:22:49;;;;;;;1.03;0.87;;;;;;;31.56;35.38;94766.19;5038616;28;20211;-69
2022/07/26 08:25:17;;;;;;;1.40;1.30;;;;;;;31.53;35.52;94767.00;5039192;28;20205;-67
2022/07/26 08:27:44;;;;;;;3.43;2.73;;;;;;;31.26;35.56;94763.16;5023407;28;20290;-67
2022/07/26 08:30:29;;;;;;;1.43;1.33;;;;;;;31.63;35.32;94760.75;5018224;28;20193;-67
2022/07/26 08:32:56;;;;;;;2.70;1.97;;;;;;;31.81;35.57;94754.13;5044037;28;20200;-66
2022/07/26 08:35:22;;;;;;;2.83;1.80;;;;;;;31.93;35.61;94755.66;5036127;28;20199;-67
2022/07/26 08:37:49;;;;;;;1.57;1.47;;;;;;;32.21;34.41;94752.78;5050857;28;20195;-68
2022/07/26 08:40:16;;;;;;;1.37;1.27;;;;;;;32.30;33.74;94753.13;5019714;28;20228;-68
2022/07/26 08:42:51;;;;;;;1.63;1.53;;;;;;;32.07;35.24;94755.56;5046426;28;20196;-67
2022/07/26 08:45:23;;;;;;;1.63;1.47;;;;;;;32.53;33.92;94753.41;5013808;28;20193;-68
2022/07/26 08:47:50;;;;;;;1.60;1.50;;;;;;;32.14;34.77;94758.25;5030156;28;20196;-68
2022/07/26 08:50:38;;;;;;;1.67;1.57;;;;;;;32.47;33.58;94754.97;5032003;28;20185;-67
2022/07/26 08:53:08;;;;;;;1.83;1.20;;;;;;;32.61;32.94;94738.59;5030435;28;20189;-67
2022/07/26 08:55:35;;;;;;;1.00;0.97;;;;;;;32.88;32.65;94757.00;5013423;28;20225;-67
2022/07/26 08:58:21;;;;;;;4.47;1.83;;;;;;;33.17;32.13;94742.03;5040727;28;20633;-68
2022/07/26 09:01:05;;;;;;;1.57;1.20;;;;;;;33.23;31.54;94745.88;5037653;28;20715;-67
2022/07/26 09:03:32;;;;;;;4.53;1.70;;;;;;;32.69;30.91;94739.31;5011416;28;20193;-67
2022/07/26 09:06:14;;;;;;;1.70;1.60;;;;;;;32.72;31.95;94743.94;5037932;28;20197;-67
2022/07/26 09:08:42;;;;;;;0.73;0.73;;;;;;;32.71;30.84;94745.13;5031716;28;20734;-66
2022/07/26 09:11:28;;;;;;;5.33;1.37;;;;;;;32.89;31.12;94742.25;5039726;28;20200;-68
2022/07/26 09:16:57;;;;;;;1.33;1.33;;;;;;;32.99;30.71;94746.88;5023001;28;20287;-67
2022/07/26 09:19:25;;;;;;;1.53;1.40;;;;;;;33.04;31.28;94743.72;5036478;28;20198;-66
2022/07/26 09:21:54;;;;;;;2.13;2.00;;;;;;;32.95;30.42;94740.69;5022031;28;20211;-68
2022/07/26 09:24:37;;;;;;;3.37;1.60;;;;;;;33.21;30.01;94737.34;5037969;28;20197;-67
2022/07/26 09:27:06;;;;;;;2.73;1.13;;;;;;;33.21;28.84;94732.66;5017295;28;20255;-66
2022/07/26 09:29:45;;;;;;;1.50;1.27;;;;;;;32.81;28.72;94736.88;5017266;28;20201;-67
2022/07/26 09:32:23;;;;;;;0.60;0.60;;;;;;;32.88;29.20;94729.88;5024168;28;20196;-66
2022/07/26 09:34:55;;;;;;;1.30;1.20;;;;;;;32.97;28.77;94727.50;5035835;28;20197;-66
2022/07/26 09:37:39;;;;;;;1.10;1.10;;;;;;;32.86;28.20;94732.19;5050293;28;20242;-66
2022/07/26 09:40:08;;;;;;;1.17;1.10;;;;;;;33.09;28.04;94724.25;5032017;28;20228;-67
2022/07/26 09:42:35;;;;;;;1.03;0.80;;;;;;;33.56;27.15;94731.56;5010417;28;20634;-67
2022/07/26 09:45:14;;;;;;;1.00;1.00;;;;;;;33.50;27.35;94719.59;5023832;28;20198;-66
2022/07/26 09:47:41;;;;;;;1.33;1.23;;;;;;;33.70;27.77;94710.41;5027084;28;20184;-67
2022/07/26 09:50:16;;;;;;;1.27;1.17;;;;;;;34.15;26.25;94718.41;5050076;28;20224;-66
2022/07/26 09:53:11;;;;;;;1.63;1.33;;;;;;;33.91;25.65;94722.97;5034442;28;20300;-67
2022/07/26 09:55:43;;;;;;;1.00;1.00;;;;;;;34.51;25.27;94720.25;5011953;28;20264;-67
2022/07/26 09:58:15;;;;;;;0.83;0.83;;;;;;;34.65;24.22;94703.69;5040378;28;20731;-66
2022/07/26 10:00:43;;;;;;;1.80;1.00;;;;;;;34.63;25.22;94711.53;5026180;28;20220;-66
2022/07/26 10:03:11;;;;;;;1.30;0.87;;;;;;;34.63;24.52;94714.25;5028652;28;20202;-66
2022/07/26 10:05:38;;;;;;;0.67;0.67;;;;;;;35.10;23.97;94708.81;5050719;28;20292;-66
2022/07/26 10:08:06;;;;;;;1.40;1.10;;;;;;;35.24;24.72;94705.81;5044722;28;20206;-66
2022/07/26 10:10:41;;;;;;;1.50;1.10;;;;;;;34.71;22.71;94702.03;5035035;28;20223;-68
2022/07/26 10:13:09;;;;;;;1.20;1.10;;;;;;;35.37;22.54;94696.63;5045656;28;20212;-66
2022/07/26 10:15:47;;;;;;;1.17;0.97;;;;;;;35.37;22.98;94693.91;5023742;28;20201;-66
2022/07/26 10:18:41;;;;;;;0.87;0.87;;;;;;;35.34;23.68;94680.34;5023136;28;20184;-66
2022/07/26 10:21:17;;;;;;;1.90;1.67;;;;;;;35.86;23.21;94697.59;5025597;28;20225;-66
2022/07/26 10:23:49;;;;;;;2.37;1.97;;;;;;;35.97;23.29;94681.06;5013477;28;20248;-67
2022/07/26 10:26:31;;;;;;;0.57;0.57;;;;;;;36.18;22.92;94683.31;5041246;28;20258;-67
2022/07/26 10:29:25;;;;;;;1.20;1.17;;;;;;;35.91;23.57;94688.97;5044997;28;20189;-66
2022/07/26 10:31:55;;;;;;;2.07;1.37;;;;;;;36.08;23.52;94682.34;5043449;28;20197;-66
2022/07/26 10:34:38;;;;;;;1.27;1.00;;;;;;;35.88;24.44;94680.81;5034011;28;20274;-67
2022/07/26 10:37:09;;;;;;;2.33;1.63;;;;;;;36.32;22.91;94683.00;5052910;28;20676;-65
2022/07/26 10:39:37;;;;;;;0.70;0.70;;;;;;;35.64;23.82;94680.16;5052893;28;20216;-66
2022/07/26 10:42:07;;;;;;;1.47;1.37;;;;;;;36.21;23.31;94679.72;5034596;28;20197;-66
2022/07/26 10:44:38;;;;;;;1.93;1.83;;;;;;;36.21;23.23;94669.59;5032450;28;20193;-67
2022/07/26 10:47:14;;;;;;;2.53;1.67;;;;;;;36.68;22.28;94669.31;5049298;28;20212;-66
2022/07/26 10:49:57;;;;;;;2.80;1.50;;;;;;;36.61;22.97;94671.00;5031321;28;20194;-68
2022/07/26 10:52:29;;;;;;;1.27;1.17;;;;;;;36.61;22.95;94665.56;5041029;28;20212;-68
2022/07/26 10:54:56;;;;;;;0.93;0.93;;;;;;;36.77;21.54;94656.56;5035527;28;20204;-68
2022/07/26 10:57:24;;;;;;;1.40;1.27;;;;;;;36.98;22.28;94655.28;5026498;28;21030;-66
2022/07/26 10:59:51;;;;;;;1.27;1.17;;;;;;;37.01;21.44;94652.47;5026508;28;20279;-67
2022/07/26 11:02:32;;;;;;;0.87;0.87;;;;;;;36.98;22.37;94647.88;5032488;28;20680;-67
2022/07/26 11:04:59;;;;;;;1.73;1.30;;;;;;;36.74;22.83;94637.53;5045836;28;20207;-66
2022/07/26 11:07:28;;;;;;;1.33;1.23;;;;;;;36.86;23.21;94643.13;5046006;28;20204;-66
2022/07/26 11:09:59;;;;;;;1.27;1.17;;;;;;;37.55;22.10;94638.94;5018425;28;20200;-67
2022/07/26 11:12:26;;;;;;;0.83;0.83;;;;;;;37.29;22.05;94624.41;5020854;28;20206;-67
2022/07/26 11:14:53;;;;;;;1.40;1.30;;;;;;;37.02;22.34;94632.16;5048683;28;20200;-67
2022/07/26 11:17:26;;;;;;;2.00;1.90;;;;;;;36.89;22.73;94628.59;5031648;28;20209;-66
2022/07/26 11:19:53;;;;;;;0.83;0.83;;;;;;;36.74;23.16;94623.88;5047019;28;20280;-65
2022/07/26 11:22:20;;;;;;;2.00;1.27;;;;;;;36.61;22.05;94626.56;5042512;28;20189;-67
2022/07/26 11:24:47;;;;;;;1.37;1.27;;;;;;;37.19;22.40;94611.78;5018022;28;20328;-66
2022/07/26 11:27:14;;;;;;;1.77;1.33;;;;;;;37.64;22.05;94611.72;5038537;28;20780;-67
2022/07/26 11:29:41;;;;;;;1.73;1.30;;;;;;;37.73;21.23;94611.81;5051926;28;20620;-70
2022/07/26 11:32:20;;;;;;;1.30;1.13;;;;;;;37.50;22.02;94599.19;5052228;28;20258;-67
2022/07/26 11:34:58;;;;;;;1.00;0.90;;;;;;;37.34;21.71;94601.25;5037505;28;20197;-67
2022/07/26 11:37:25;;;;;;;1.60;1.33;;;;;;;37.84;20.89;94606.84;5036192;28;20252;-66
2022/07/26 11:39:53;;;;;;;1.30;1.17;;;;;;;37.87;20.30;94595.00;5026065;28;20193;-67
2022/07/26 11:42:20;;;;;;;2.20;1.40;;;;;;;37.66;20.01;94595.63;5024522;28;20630;-67
2022/07/26 11:44:48;;;;;;;1.23;1.00;;;;;;;36.56;21.39;94597.03;5026934;28;20229;-69
2022/07/26 11:47:20;;;;;;;1.03;1.03;;;;;;;37.54;21.87;94594.41;5035133;28;20196;-66